Time;durP1;ratioP1;P1;durP2;ratioP2;P2;SDS_P1;SDS_P2;PMS_P1;PMS_P2;Temp;Humidity;BMP_temperature;BMP_pressure;BME280_temperature;BME280_humidity;BME280_pressure;Samples;Min_cycle;Max_cycle;Signal;HPM_P1;HPM_P2
2023/09/11 00:00:47;;;;;;;10.85;7.80;;;;;;;25.25;39.18;101052.16;5025877;28;20416;-73
2023/09/11 00:03:15;;;;;;;8.80;7.57;;;;;;;25.22;39.27;101045.09;5026107;28;20388;-75
2023/09/11 00:05:44;;;;;;;8.68;7.50;;;;;;;25.21;39.26;101040.56;5019252;28;20542;-75
2023/09/11 00:08:31;;;;;;;8.20;6.85;;;;;;;25.15;39.24;101038.63;5022739;28;20052;-73
2023/09/11 00:10:59;;;;;;;8.68;6.88;;;;;;;25.15;39.05;101034.97;5027952;28;20045;-72
2023/09/11 00:13:28;;;;;;;12.27;7.25;;;;;;;25.14;39.42;101033.28;5024610;28;20045;-76
2023/09/11 00:15:56;;;;;;;8.98;7.07;;;;;;;25.11;39.29;101033.72;5010013;28;20048;-73
2023/09/11 00:18:24;;;;;;;10.93;7.65;;;;;;;25.09;39.10;101027.50;5020908;28;20050;-76
2023/09/11 00:20:53;;;;;;;8.75;7.43;;;;;;;25.08;39.55;101029.44;5028018;28;20047;-73
2023/09/11 00:23:22;;;;;;;9.63;7.03;;;;;;;25.04;39.34;101022.59;5029677;28;20046;-72
2023/09/11 00:25:50;;;;;;;8.23;6.50;;;;;;;25.02;39.36;101029.47;5029179;28;20046;-75
2023/09/11 00:28:18;;;;;;;9.52;7.00;;;;;;;25.00;39.46;101031.66;5027133;28;20053;-73
2023/09/11 00:30:46;;;;;;;11.05;7.30;;;;;;;24.97;39.55;101034.91;5022244;28;20059;-73
2023/09/11 00:33:14;;;;;;;9.23;7.05;;;;;;;24.94;39.37;101021.34;5024894;28;20041;-73
2023/09/11 00:35:44;;;;;;;9.05;6.95;;;;;;;24.93;39.37;101020.47;5018895;28;20554;-72
2023/09/11 00:38:13;;;;;;;9.75;6.95;;;;;;;24.89;39.45;101024.81;5024331;28;20041;-74
2023/09/11 00:40:41;;;;;;;10.75;7.57;;;;;;;24.83;39.70;101025.69;5028558;28;20041;-74
2023/09/11 00:43:09;;;;;;;9.23;6.90;;;;;;;24.79;39.66;101016.91;5021232;28;20045;-73
2023/09/11 00:45:37;;;;;;;8.80;6.72;;;;;;;24.76;39.65;101014.53;5025741;28;20476;-73
2023/09/11 00:48:05;;;;;;;10.50;6.68;;;;;;;24.75;39.77;101021.22;5030521;28;20115;-72
2023/09/11 00:50:33;;;;;;;8.38;6.80;;;;;;;24.73;39.81;101020.56;5027599;28;20118;-75
2023/09/11 00:53:04;;;;;;;8.35;7.05;;;;;;;24.73;39.80;101022.53;5028164;28;20041;-75
2023/09/11 00:55:34;;;;;;;7.85;7.05;;;;;;;24.71;39.91;101017.16;5016272;28;20145;-73
2023/09/11 00:58:02;;;;;;;8.80;7.25;;;;;;;24.66;39.83;101028.16;5009602;28;20108;-73
2023/09/11 01:00:30;;;;;;;8.82;6.63;;;;;;;24.63;40.00;101025.81;4998588;28;20405;-72
2023/09/11 01:02:58;;;;;;;7.75;6.40;;;;;;;24.63;39.88;101016.56;5005110;28;20521;-73
2023/09/11 01:05:28;;;;;;;8.60;6.95;;;;;;;24.61;40.15;101011.19;5020779;28;20045;-73
2023/09/11 01:07:56;;;;;;;9.13;7.10;;;;;;;24.57;40.00;101012.69;5024819;28;20046;-74
2023/09/11 01:10:24;;;;;;;10.13;7.15;;;;;;;24.56;40.13;101005.41;5034877;28;20117;-75
2023/09/11 01:12:54;;;;;;;10.20;6.68;;;;;;;24.56;40.21;101011.00;5027974;28;20656;-73
2023/09/11 01:15:23;;;;;;;7.93;6.85;;;;;;;24.54;40.29;101012.31;5026607;28;20052;-74
2023/09/11 01:17:59;;;;;;;8.30;6.30;;;;;;;24.57;40.44;101014.66;5024032;28;20045;-73
2023/09/11 01:20:45;;;;;;;8.30;6.13;;;;;;;24.55;40.57;101017.69;5023519;28;20470;-74
2023/09/11 01:23:49;;;;;;;10.25;6.93;;;;;;;24.51;40.62;101008.00;5019439;28;20397;-73
2023/09/11 01:26:48;;;;;;;9.88;7.28;;;;;;;24.46;40.33;101005.03;5020050;28;20144;-73
2023/09/11 01:29:21;;;;;;;8.90;6.72;;;;;;;24.46;40.42;101002.22;5027765;28;20099;-75
2023/09/11 01:31:50;;;;;;;9.90;6.82;;;;;;;24.43;40.06;101008.25;5021081;28;20048;-74
2023/09/11 01:34:18;;;;;;;9.10;6.68;;;;;;;24.40;40.21;101000.31;5022660;28;20049;-75
2023/09/11 01:36:46;;;;;;;8.38;6.78;;;;;;;24.37;40.20;101000.75;5030015;28;20160;-73
2023/09/11 01:39:15;;;;;;;8.82;6.75;;;;;;;24.35;40.09;100998.19;5026027;28;20049;-73
2023/09/11 01:41:46;;;;;;;8.18;6.78;;;;;;;24.34;40.11;101004.81;5026224;28;20092;-73
2023/09/11 01:44:17;;;;;;;8.95;6.90;;;;;;;24.31;40.38;101004.41;5016012;28;20149;-73
2023/09/11 01:46:48;;;;;;;8.50;6.37;;;;;;;24.27;40.32;100997.53;5023004;28;20099;-73
2023/09/11 01:49:18;;;;;;;8.13;7.13;;;;;;;24.24;40.31;100986.81;5027108;28;20048;-74
2023/09/11 01:51:49;;;;;;;10.10;6.97;;;;;;;24.19;40.39;100986.59;5025991;28;20037;-73
2023/09/11 01:54:17;;;;;;;9.73;6.95;;;;;;;24.15;40.34;100983.41;5021085;28;20046;-76
2023/09/11 01:56:45;;;;;;;9.88;7.00;;;;;;;24.12;40.41;100984.69;5027590;28;20045;-76
2023/09/11 01:59:14;;;;;;;8.80;6.90;;;;;;;24.11;40.38;100993.28;5025554;28;20061;-78
2023/09/11 02:01:43;;;;;;;9.82;7.07;;;;;;;24.07;40.48;100989.25;5024066;28;20037;-73
2023/09/11 02:04:13;;;;;;;10.68;6.90;;;;;;;24.07;40.49;100992.88;5022600;28;20580;-77
2023/09/11 02:06:42;;;;;;;9.70;6.82;;;;;;;24.02;40.62;100983.44;5026478;28;20041;-72
2023/09/11 02:09:10;;;;;;;9.98;6.63;;;;;;;24.00;40.67;100983.66;5017471;28;20127;-72
2023/09/11 02:11:38;;;;;;;8.05;6.53;;;;;;;23.99;40.69;100986.69;5021447;28;20077;-72
2023/09/11 02:14:06;;;;;;;7.93;6.30;;;;;;;23.97;40.64;100991.63;5025482;28;20044;-72
2023/09/11 02:16:34;;;;;;;10.30;6.70;;;;;;;23.95;40.84;100988.19;5025471;28;20042;-76
2023/09/11 02:19:02;;;;;;;8.88;6.85;;;;;;;23.92;40.70;100986.69;5027123;28;20041;-75
2023/09/11 02:21:31;;;;;;;10.82;6.75;;;;;;;23.93;40.82;100982.81;5023479;28;20553;-71
2023/09/11 02:23:59;;;;;;;9.35;6.68;;;;;;;23.88;40.92;100982.63;5025042;28;20120;-72
2023/09/11 02:26:28;;;;;;;11.05;7.03;;;;;;;23.89;40.72;100983.47;5022151;28;20045;-74
2023/09/11 02:28:59;;;;;;;9.50;6.50;;;;;;;23.85;41.02;100980.25;5026083;28;20059;-72
2023/09/11 02:31:27;;;;;;;10.75;7.25;;;;;;;23.82;41.08;100977.06;5026568;28;20053;-72
2023/09/11 02:33:55;;;;;;;9.23;6.80;;;;;;;23.83;41.13;100978.75;5020061;28;20058;-71
2023/09/11 02:36:23;;;;;;;9.60;6.93;;;;;;;23.82;40.91;100974.25;5022831;28;20446;-73
2023/09/11 02:38:52;;;;;;;9.77;6.90;;;;;;;23.82;40.95;100979.84;5022876;28;20152;-72
2023/09/11 02:41:20;;;;;;;8.15;6.60;;;;;;;23.79;41.19;100978.34;5024936;28;20041;-73
2023/09/11 02:43:48;;;;;;;8.38;6.72;;;;;;;23.78;40.79;100979.41;5024184;28;20044;-72
2023/09/11 02:46:16;;;;;;;11.82;6.80;;;;;;;23.76;41.17;100981.56;5020152;28;20048;-72
2023/09/11 02:48:45;;;;;;;9.35;6.60;;;;;;;23.75;40.94;100977.88;5023666;28;20044;-75
2023/09/11 02:51:13;;;;;;;9.45;6.45;;;;;;;23.73;41.00;100976.41;5023713;28;20049;-73
2023/09/11 02:53:42;;;;;;;7.80;6.10;;;;;;;23.72;41.03;100969.94;5015423;28;20096;-73
2023/09/11 02:56:11;;;;;;;8.35;6.47;;;;;;;23.73;40.94;100974.47;5020922;28;20041;-73
2023/09/11 02:58:39;;;;;;;9.82;6.25;;;;;;;23.70;40.87;100977.69;5018838;28;20467;-73
2023/09/11 03:01:07;;;;;;;7.00;6.05;;;;;;;23.69;41.11;100975.97;5025716;28;20049;-72
2023/09/11 03:03:35;;;;;;;9.07;6.68;;;;;;;23.69;40.93;100969.50;5010693;28;20048;-72
2023/09/11 03:06:04;;;;;;;12.20;6.75;;;;;;;23.70;40.96;100974.03;5017045;28;20053;-73
2023/09/11 03:08:32;;;;;;;8.43;6.80;;;;;;;23.67;40.99;100968.88;5018552;28;20087;-74
2023/09/11 03:11:06;;;;;;;8.43;6.43;;;;;;;23.69;41.21;100966.72;5016928;28;20049;-72
2023/09/11 03:13:36;;;;;;;9.90;6.22;;;;;;;23.66;40.69;100962.41;5010460;28;20061;-72
2023/09/11 03:16:09;;;;;;;9.13;6.20;;;;;;;23.67;41.08;100966.06;5026917;28;20073;-72
2023/09/11 03:18:37;;;;;;;9.15;6.72;;;;;;;23.64;41.04;100958.16;5018732;28;20049;-72
2023/09/11 03:21:07;;;;;;;9.27;6.90;;;;;;;23.64;40.82;100959.00;5003551;28;20548;-75
2023/09/11 03:23:35;;;;;;;9.45;6.30;;;;;;;23.64;40.84;100960.94;5006499;28;20092;-72
2023/09/11 03:26:04;;;;;;;9.82;6.60;;;;;;;23.62;40.68;100963.94;5019028;28;20040;-72
2023/09/11 03:28:32;;;;;;;8.65;6.65;;;;;;;23.61;40.82;100959.44;5027256;28;20541;-72
2023/09/11 03:31:03;;;;;;;10.15;6.80;;;;;;;23.62;41.05;100955.56;5023222;28;20046;-72
2023/09/11 03:33:32;;;;;;;8.30;6.63;;;;;;;23.55;40.89;100965.03;5024769;28;20073;-72
2023/09/11 03:36:00;;;;;;;9.45;6.05;;;;;;;23.54;40.94;100958.59;5018965;28;20046;-72
2023/09/11 03:38:28;;;;;;;10.32;7.05;;;;;;;23.53;40.98;100958.78;5019980;28;20513;-73
2023/09/11 03:40:56;;;;;;;8.13;6.15;;;;;;;23.50;40.77;100957.28;5024347;28;20037;-71
2023/09/11 03:43:24;;;;;;;8.57;6.35;;;;;;;23.47;40.72;100952.16;5017357;28;20045;-72
2023/09/11 03:45:52;;;;;;;9.52;6.78;;;;;;;23.44;40.81;100949.78;5027792;28;20046;-72
2023/09/11 03:48:22;;;;;;;9.85;6.63;;;;;;;23.43;40.91;100944.41;5019230;28;20429;-73
2023/09/11 03:50:50;;;;;;;10.63;6.35;;;;;;;23.37;40.94;100941.41;5024836;28;20037;-75
2023/09/11 03:53:18;;;;;;;9.38;6.38;;;;;;;23.35;40.82;100945.50;5012451;28;20092;-72
2023/09/11 03:55:46;;;;;;;7.97;6.10;;;;;;;23.30;41.02;100940.56;5023953;28;20516;-73
2023/09/11 03:58:14;;;;;;;9.18;6.78;;;;;;;23.26;40.78;100939.28;5028959;28;20046;-75
2023/09/11 04:00:42;;;;;;;9.95;6.22;;;;;;;23.22;40.95;100945.53;5022691;28;20045;-72
2023/09/11 04:03:10;;;;;;;9.57;6.43;;;;;;;23.18;40.93;100933.06;5030126;28;20038;-72
2023/09/11 04:05:39;;;;;;;10.75;6.78;;;;;;;23.17;40.99;100936.91;5005728;28;20046;-72
2023/09/11 04:08:08;;;;;;;8.25;6.28;;;;;;;23.11;41.02;100937.75;5027074;28;20501;-72
2023/09/11 04:10:36;;;;;;;9.77;6.30;;;;;;;23.08;41.00;100932.63;5023693;28;20133;-72
2023/09/11 04:13:04;;;;;;;8.95;6.75;;;;;;;23.05;40.84;100930.25;5022537;28;20093;-72
2023/09/11 04:15:32;;;;;;;8.98;6.18;;;;;;;23.02;40.93;100932.38;5023497;28;20178;-72
2023/09/11 04:18:00;;;;;;;9.27;6.15;;;;;;;22.99;41.22;100927.25;5030452;28;20152;-74
2023/09/11 04:20:33;;;;;;;9.35;5.82;;;;;;;22.98;41.19;100933.91;5030720;28;20715;-73
2023/09/11 04:23:04;;;;;;;8.32;5.97;;;;;;;22.97;41.56;100937.75;5012335;28;20490;-71
2023/09/11 04:25:33;;;;;;;9.13;6.25;;;;;;;22.94;41.33;100937.31;5030970;28;20052;-72
2023/09/11 04:28:01;;;;;;;9.65;6.15;;;;;;;22.92;41.21;100931.94;5017660;28;20072;-73
2023/09/11 04:30:29;;;;;;;9.27;6.10;;;;;;;22.89;41.05;100931.53;5013347;23;20101;-69
2023/09/11 04:32:57;;;;;;;9.45;6.10;;;;;;;22.88;41.15;100929.81;4989649;28;20071;-70
2023/09/11 04:35:25;;;;;;;9.23;6.95;;;;;;;22.86;41.06;100926.38;4991848;28;20054;-71
2023/09/11 04:37:53;;;;;;;8.43;5.88;;;;;;;22.85;41.36;100927.44;4994805;28;20043;-71
2023/09/11 04:40:23;;;;;;;9.98;6.47;;;;;;;22.85;41.39;100921.84;4990068;28;20039;-70
2023/09/11 04:42:51;;;;;;;7.68;5.68;;;;;;;22.83;41.22;100924.03;4992251;28;20073;-71
2023/09/11 04:45:19;;;;;;;8.02;6.18;;;;;;;22.80;41.23;100916.94;4991423;28;20034;-71
2023/09/11 04:47:47;;;;;;;8.25;5.85;;;;;;;22.79;41.33;100918.00;4979533;28;20042;-70
2023/09/11 04:50:16;;;;;;;9.02;6.35;;;;;;;22.78;41.10;100916.28;4980584;28;20054;-71
2023/09/11 04:52:44;;;;;;;7.78;5.90;;;;;;;22.77;41.19;100914.56;4998910;28;20062;-71
2023/09/11 04:55:13;;;;;;;10.13;6.45;;;;;;;22.77;41.33;100920.13;4984439;28;20061;-71
2023/09/11 04:57:42;;;;;;;8.48;6.20;;;;;;;22.77;41.34;100913.69;4996526;28;20058;-71
2023/09/11 05:00:11;;;;;;;8.18;5.95;;;;;;;22.75;41.12;100918.66;4981529;28;20197;-71
2023/09/11 05:02:41;;;;;;;7.43;5.72;;;;;;;22.73;41.24;100930.00;4981836;28;20065;-71
2023/09/11 05:05:09;;;;;;;9.02;6.22;;;;;;;22.73;41.21;100931.94;4999322;28;20050;-71
2023/09/11 05:07:37;;;;;;;8.88;5.88;;;;;;;22.71;41.21;100929.38;4980629;28;20050;-71
2023/09/11 05:10:08;;;;;;;9.68;6.00;;;;;;;22.73;41.21;100923.56;4983082;28;20046;-72
2023/09/11 05:12:37;;;;;;;8.88;6.60;;;;;;;22.68;41.25;100926.13;4988251;28;20130;-70
2023/09/11 05:15:08;;;;;;;9.13;6.22;;;;;;;22.72;41.17;100928.28;4990069;28;20046;-71
2023/09/11 05:17:36;;;;;;;10.82;6.35;;;;;;;22.68;41.15;100924.19;4981804;28;20132;-72
2023/09/11 05:20:06;;;;;;;8.45;6.07;;;;;;;22.67;41.25;100928.09;4983898;28;20522;-72
2023/09/11 05:22:34;;;;;;;12.50;6.00;;;;;;;22.65;41.16;100924.63;5003032;28;20418;-70
2023/09/11 05:25:02;;;;;;;7.40;6.13;;;;;;;22.64;41.14;100923.78;5006675;28;20046;-75
2023/09/11 05:27:30;;;;;;;8.93;5.90;;;;;;;22.62;41.31;100923.13;4988179;28;20054;-75
2023/09/11 05:29:58;;;;;;;8.15;5.57;;;;;;;22.61;41.18;100926.97;4992262;28;20047;-75
2023/09/11 05:32:27;;;;;;;9.13;5.72;;;;;;;22.63;41.08;100926.78;4990999;28;20489;-74
2023/09/11 05:34:55;;;;;;;11.43;5.85;;;;;;;22.61;41.08;100929.78;4991025;28;20045;-75
2023/09/11 05:37:23;;;;;;;9.40;5.88;;;;;;;22.61;41.23;100929.78;4989433;28;20429;-75
2023/09/11 05:39:51;;;;;;;7.78;5.85;;;;;;;22.60;41.07;100932.75;4977819;28;20054;-67
2023/09/11 05:42:19;;;;;;;10.23;6.00;;;;;;;22.59;41.06;100931.91;4984819;28;20038;-73
2023/09/11 05:44:48;;;;;;;9.80;5.78;;;;;;;22.58;41.00;100932.16;4986128;28;20039;-73
2023/09/11 05:47:16;;;;;;;9.25;6.18;;;;;;;22.57;41.16;100942.44;5014373;28;20075;-73
2023/09/11 05:49:45;;;;;;;8.07;5.65;;;;;;;22.58;40.93;100938.59;4985052;28;20038;-72
2023/09/11 05:52:13;;;;;;;9.40;5.63;;;;;;;22.56;40.94;100937.94;5018625;28;20034;-73
2023/09/11 05:54:41;;;;;;;9.38;5.43;;;;;;;22.57;41.01;100949.94;4987528;28;20121;-76
2023/09/11 05:57:10;;;;;;;9.80;6.10;;;;;;;22.55;40.76;100940.91;4991158;28;20405;-76
2023/09/11 05:59:38;;;;;;;8.52;5.63;;;;;;;22.55;40.53;100950.16;4987818;28;20101;-76
2023/09/11 06:02:06;;;;;;;8.52;5.75;;;;;;;22.53;41.24;100938.34;4984730;28;20058;-74
2023/09/11 06:04:34;;;;;;;10.40;7.03;;;;;;;22.52;41.37;100942.16;4987246;28;20407;-76
2023/09/11 06:07:04;;;;;;;8.38;5.50;;;;;;;22.55;40.96;100940.91;4989326;28;20057;-76
2023/09/11 06:09:32;;;;;;;9.55;6.07;;;;;;;22.51;41.27;100940.44;4983035;28;20383;-73
2023/09/11 06:12:00;;;;;;;7.65;5.72;;;;;;;22.52;41.33;100944.09;4982295;28;20038;-74
2023/09/11 06:14:28;;;;;;;9.07;6.05;;;;;;;22.54;41.19;100942.00;4990357;28;20568;-74
2023/09/11 06:16:55;;;;;;;8.88;5.88;;;;;;;22.55;41.55;100952.94;4986702;28;20064;-74
2023/09/11 06:19:25;;;;;;;9.30;5.72;;;;;;;22.58;41.16;100951.66;4988860;28;20050;-75
2023/09/11 06:21:54;;;;;;;8.82;5.65;;;;;;;22.61;41.30;100949.28;4985161;28;20125;-74
2023/09/11 06:24:23;;;;;;;9.90;5.95;;;;;;;22.67;41.08;100952.31;4989656;28;20387;-74
2023/09/11 06:27:03;;;;;;;8.07;5.68;;;;;;;22.70;41.12;100952.75;4986684;28;20042;-73
2023/09/11 06:29:31;;;;;;;8.52;5.45;;;;;;;22.70;41.23;100946.31;4979349;28;20054;-75
2023/09/11 06:31:59;;;;;;;9.73;5.90;;;;;;;22.73;41.12;100951.47;4980294;28;20502;-75
2023/09/11 06:34:29;;;;;;;7.95;5.65;;;;;;;22.76;40.81;100960.25;4985460;28;20042;-75
2023/09/11 06:36:57;;;;;;;9.63;5.32;;;;;;;22.79;41.12;100956.19;4993729;28;20046;-75
2023/09/11 06:39:28;;;;;;;7.07;5.45;;;;;;;22.84;40.77;100956.41;4977441;28;20141;-74
2023/09/11 06:41:56;;;;;;;10.77;5.75;;;;;;;22.84;41.07;100959.19;4986750;28;20059;-75
2023/09/11 06:44:25;;;;;;;8.82;5.60;;;;;;;22.86;41.05;100955.13;4987884;28;20141;-74
2023/09/11 06:46:53;;;;;;;9.82;5.63;;;;;;;22.90;41.13;100961.16;4985296;28;20047;-73
2023/09/11 06:49:21;;;;;;;7.90;5.25;;;;;;;22.96;41.11;100951.91;4986222;28;20064;-75
2023/09/11 06:51:49;;;;;;;7.45;4.78;;;;;;;23.02;41.22;100953.84;4987539;28;20062;-73
2023/09/11 06:54:17;;;;;;;11.35;5.30;;;;;;;23.13;41.38;100960.72;4989213;28;20402;-73
2023/09/11 06:56:46;;;;;;;9.85;5.28;;;;;;;23.24;41.69;100952.63;4988137;28;20049;-74
2023/09/11 06:59:14;;;;;;;8.30;5.50;;;;;;;23.36;41.57;100952.81;4982959;28;20054;-73
2023/09/11 07:01:42;;;;;;;6.93;4.70;;;;;;;23.50;41.60;100946.13;4989243;28;20239;-73
2023/09/11 07:04:11;;;;;;;10.70;5.32;;;;;;;23.68;41.23;100948.22;4985239;28;20145;-74
2023/09/11 07:06:39;;;;;;;9.55;5.57;;;;;;;23.85;41.02;100949.50;4986794;28;20048;-73
2023/09/11 07:09:08;;;;;;;8.75;5.13;;;;;;;24.03;40.97;100946.00;4988251;28;20080;-72
2023/09/11 07:11:36;;;;;;;6.65;4.95;;;;;;;24.21;41.15;100948.09;4982436;28;20068;-73
2023/09/11 07:14:08;;;;;;;7.80;4.85;;;;;;;24.42;40.63;100939.38;4988135;28;20069;-73
2023/09/11 07:16:36;;;;;;;9.98;5.10;;;;;;;24.60;40.38;100942.31;4985993;28;20054;-73
2023/09/11 07:19:04;;;;;;;8.82;4.97;;;;;;;24.81;40.30;100941.94;4984892;28;20065;-72
2023/09/11 07:21:32;;;;;;;6.90;4.70;;;;;;;25.04;40.12;100941.38;4986667;28;20616;-73
2023/09/11 07:24:00;;;;;;;8.73;4.97;;;;;;;25.27;39.77;100940.75;4987419;28;20050;-73
2023/09/11 07:26:28;;;;;;;7.80;4.68;;;;;;;25.48;39.35;100947.84;4988470;28;20050;-72
2023/09/11 07:28:57;;;;;;;9.27;4.70;;;;;;;25.71;38.82;100934.06;4987837;28;20050;-73
2023/09/11 07:31:26;;;;;;;7.90;5.10;;;;;;;25.94;38.28;100933.38;4988163;28;20753;-73
2023/09/11 07:33:54;;;;;;;7.93;5.10;;;;;;;26.12;37.89;100938.16;4989487;28;20043;-73
2023/09/11 07:36:22;;;;;;;10.57;5.43;;;;;;;26.31;37.37;100939.81;4988870;28;20117;-73
2023/09/11 07:38:50;;;;;;;6.78;4.65;;;;;;;26.48;37.09;100934.41;4987136;28;20046;-73
2023/09/11 07:41:19;;;;;;;9.23;4.80;;;;;;;26.64;36.73;100937.44;5012614;28;20548;-73
2023/09/11 07:43:49;;;;;;;9.60;4.75;;;;;;;26.78;36.41;100938.09;4988547;28;20135;-73
2023/09/11 07:46:19;;;;;;;6.97;4.47;;;;;;;26.93;35.57;100935.69;4985763;28;20458;-73
2023/09/11 07:48:49;;;;;;;9.57;5.10;;;;;;;27.03;34.87;100941.59;4986883;28;20116;-73
2023/09/11 07:51:18;;;;;;;6.28;4.43;;;;;;;27.11;35.07;100940.38;4986513;28;20042;-74
2023/09/11 07:53:46;;;;;;;7.00;4.53;;;;;;;27.20;34.84;100936.16;4987100;28;20133;-73
2023/09/11 07:56:14;;;;;;;8.43;4.50;;;;;;;27.27;34.35;100936.88;4986403;28;20045;-73
2023/09/11 07:58:42;;;;;;;6.95;4.47;;;;;;;27.34;34.33;100931.13;4982005;28;20141;-73
2023/09/11 08:01:10;;;;;;;7.80;5.28;;;;;;;27.38;34.27;100941.63;4999422;28;20046;-73
2023/09/11 08:03:39;;;;;;;9.38;4.50;;;;;;;27.43;34.00;100929.66;4986886;28;20038;-72
2023/09/11 08:06:08;;;;;;;8.05;4.82;;;;;;;27.48;33.80;100936.25;4978345;28;20049;-73
2023/09/11 08:08:36;;;;;;;7.15;4.68;;;;;;;27.49;33.43;100931.50;4983662;28;20060;-73
2023/09/11 08:11:13;;;;;;;7.95;4.47;;;;;;;27.55;32.42;100938.09;4984302;28;20050;-72
2023/09/11 08:13:41;;;;;;;9.27;4.63;;;;;;;27.52;33.29;100942.25;4983066;28;20046;-73
2023/09/11 08:16:09;;;;;;;8.90;4.90;;;;;;;27.54;32.98;100944.78;4982830;28;20062;-73
2023/09/11 08:18:37;;;;;;;9.65;4.85;;;;;;;27.55;33.23;100946.50;4984924;28;20138;-73
2023/09/11 08:21:05;;;;;;;6.03;3.95;;;;;;;27.56;33.60;100945.41;4989166;28;20050;-73
2023/09/11 08:23:35;;;;;;;8.23;4.22;;;;;;;27.60;33.33;100952.28;4985694;28;20402;-73
2023/09/11 08:26:03;;;;;;;9.13;4.68;;;;;;;27.58;32.96;100944.09;4986562;28;20050;-73
2023/09/11 08:28:31;;;;;;;11.60;4.78;;;;;;;27.60;33.27;100950.31;4986847;28;20141;-73
2023/09/11 08:30:59;;;;;;;8.57;4.63;;;;;;;27.62;33.37;100941.63;4987804;28;20066;-73
2023/09/11 08:33:27;;;;;;;6.65;4.60;;;;;;;27.64;32.73;100953.47;4992038;28;20042;-72
2023/09/11 08:36:15;;;;;;;6.63;4.22;;;;;;;27.65;33.10;100947.63;4988660;28;20038;-73
2023/09/11 08:38:44;;;;;;;8.32;4.85;;;;;;;27.71;32.84;100960.72;4987616;28;20118;-73
2023/09/11 08:41:14;;;;;;;8.02;4.50;;;;;;;27.72;32.36;100956.81;4989092;28;20461;-73
2023/09/11 08:43:43;;;;;;;7.25;4.47;;;;;;;27.74;32.63;100949.00;4987290;28;20484;-73
2023/09/11 08:46:15;;;;;;;9.57;4.70;;;;;;;27.79;32.35;100943.47;4989807;28;20057;-72
2023/09/11 08:48:45;;;;;;;7.30;4.22;;;;;;;27.80;32.38;100949.94;5017106;28;20494;-73
2023/09/11 08:51:20;;;;;;;8.43;4.65;;;;;;;27.86;32.57;100941.38;4988919;28;20567;-73
2023/09/11 08:53:52;;;;;;;6.63;4.40;;;;;;;27.89;32.18;100940.03;5001549;28;20347;-73
2023/09/11 08:56:20;;;;;;;7.85;4.57;;;;;;;27.88;32.47;100941.13;4989319;28;20141;-72
2023/09/11 08:58:51;;;;;;;8.82;5.03;;;;;;;27.96;32.46;100942.72;4987843;28;20397;-73
2023/09/11 09:01:20;;;;;;;7.77;4.60;;;;;;;27.95;32.71;100938.19;4987829;28;20051;-73
2023/09/11 09:03:49;;;;;;;8.82;5.20;;;;;;;28.01;32.43;100938.06;4988782;28;20286;-73
2023/09/11 09:06:19;;;;;;;7.82;4.85;;;;;;;28.05;32.67;100930.81;4989299;28;20100;-72
2023/09/11 09:08:47;;;;;;;8.27;4.05;;;;;;;28.10;32.51;100935.72;4985481;28;20454;-73
2023/09/11 09:11:17;;;;;;;7.05;4.30;;;;;;;28.18;31.96;100939.00;4989844;28;20080;-73
2023/09/11 09:13:45;;;;;;;6.63;4.50;;;;;;;28.19;32.14;100935.06;4988799;28;20266;-72
2023/09/11 09:16:13;;;;;;;6.55;4.28;;;;;;;28.25;31.98;100938.88;4988376;28;20142;-72
2023/09/11 09:18:48;;;;;;;7.85;4.47;;;;;;;28.33;31.88;100930.03;4987328;28;20517;-72
2023/09/11 09:21:17;;;;;;;7.53;4.63;;;;;;;28.36;32.38;100932.34;4989477;28;20049;-73
2023/09/11 09:23:45;;;;;;;7.57;4.32;;;;;;;28.43;31.76;100932.22;4987799;28;20061;-72
2023/09/11 09:26:13;;;;;;;8.15;4.60;;;;;;;28.48;31.46;100921.91;4988541;28;20150;-73
2023/09/11 09:28:47;;;;;;;8.77;4.75;;;;;;;28.56;31.30;100923.44;4989074;28;20170;-73
2023/09/11 09:31:23;;;;;;;6.87;4.13;;;;;;;28.61;30.61;100917.91;4988203;28;20047;-73
2023/09/11 09:33:53;;;;;;;7.05;4.40;;;;;;;28.66;31.36;100914.34;4985888;28;20831;-73
2023/09/11 09:36:21;;;;;;;7.47;4.20;;;;;;;28.71;30.92;100909.66;4987443;28;20047;-73
2023/09/11 09:38:49;;;;;;;7.40;4.60;;;;;;;28.78;30.57;100906.69;4984862;28;20124;-73
2023/09/11 09:41:20;;;;;;;7.65;4.43;;;;;;;28.85;30.58;100907.41;4988222;28;20042;-73
2023/09/11 09:43:54;;;;;;;;;;;;;;;28.56;31.45;100904.59;4989104;28;20042;-73
2023/09/11 09:46:23;;;;;;;7.38;4.25;;;;;;;28.92;30.60;100908.97;4988071;28;19966;-73
2023/09/11 09:48:51;;;;;;;6.63;4.40;;;;;;;29.02;30.65;100894.16;5002256;28;20419;-73
2023/09/11 09:51:20;;;;;;;6.85;4.47;;;;;;;29.10;30.35;100899.38;4985920;28;20125;-73
2023/09/11 09:53:54;;;;;;;7.78;4.57;;;;;;;29.21;29.51;100900.41;4985487;28;20046;-73
2023/09/11 09:56:23;;;;;;;5.75;4.30;;;;;;;29.22;30.43;100894.50;4986855;28;20060;-72
2023/09/11 09:58:51;;;;;;;6.97;4.30;;;;;;;29.30;30.09;100896.94;4987236;28;20042;-73
2023/09/11 10:01:22;;;;;;;7.40;4.10;;;;;;;29.40;30.07;100892.56;4987517;28;20085;-73
2023/09/11 10:03:52;;;;;;;7.47;4.20;;;;;;;29.47;30.22;100902.53;4986283;28;20089;-73
2023/09/11 10:06:22;;;;;;;8.30;4.38;;;;;;;29.54;29.93;100896.72;4989217;28;20524;-73
2023/09/11 10:09:05;;;;;;;6.47;4.40;;;;;;;29.62;29.77;100896.28;4984705;28;20042;-72
2023/09/11 10:11:34;;;;;;;7.78;4.57;;;;;;;29.66;30.02;100898.31;4989239;28;20062;-73
2023/09/11 10:14:04;;;;;;;8.32;4.50;;;;;;;29.75;29.43;100898.75;4990348;28;20046;-73
2023/09/11 10:16:34;;;;;;;7.10;4.50;;;;;;;29.82;28.97;100902.25;4987625;28;20077;-73
2023/09/11 10:19:03;;;;;;;7.65;4.18;;;;;;;29.87;29.33;100895.81;4986173;28;20042;-72
2023/09/11 10:21:32;;;;;;;5.45;4.07;;;;;;;29.93;29.38;100891.91;5000860;28;20409;-73
2023/09/11 10:24:01;;;;;;;6.57;4.47;;;;;;;29.98;28.93;100900.47;4988668;28;20117;-73
2023/09/11 10:26:35;;;;;;;7.57;4.70;;;;;;;30.08;28.95;100897.78;4987173;28;20387;-72
2023/09/11 10:29:07;;;;;;;8.38;4.70;;;;;;;30.13;29.45;100899.81;4987228;28;20042;-73
2023/09/11 10:31:44;;;;;;;7.68;4.55;;;;;;;30.19;28.73;100893.94;4987746;28;20129;-73
2023/09/11 10:34:12;;;;;;;7.30;4.32;;;;;;;30.20;29.39;100898.47;4988643;28;20046;-73
2023/09/11 10:36:46;;;;;;;7.80;4.40;;;;;;;30.28;28.92;100897.19;5003388;28;20034;-73
2023/09/11 10:39:16;;;;;;;5.97;4.25;;;;;;;30.30;29.26;100890.16;4984241;28;20053;-73
2023/09/11 10:41:45;;;;;;;5.78;4.57;;;;;;;30.34;29.14;100880.03;4986690;28;20069;-73
2023/09/11 10:44:15;;;;;;;7.50;4.60;;;;;;;30.39;29.14;100890.56;4988048;28;20088;-73
2023/09/11 10:46:49;;;;;;;8.30;4.75;;;;;;;30.46;28.58;100894.00;4988081;28;20112;-73
2023/09/11 10:49:20;;;;;;;6.40;4.68;;;;;;;30.48;28.70;100888.97;4985788;28;20390;-73
2023/09/11 10:51:49;;;;;;;7.07;5.40;;;;;;;30.51;28.73;100879.94;4987563;28;20052;-73
2023/09/11 10:54:21;;;;;;;7.10;5.10;;;;;;;30.55;28.50;100878.28;4986777;28;20054;-73
2023/09/11 10:56:50;;;;;;;6.22;4.82;;;;;;;30.56;28.72;100884.81;4998939;28;20062;-73
2023/09/11 10:59:18;;;;;;;6.50;4.60;;;;;;;30.58;28.16;100882.56;4987096;28;20050;-73
2023/09/11 11:01:48;;;;;;;9.00;5.20;;;;;;;30.63;28.54;100874.13;4986210;28;20556;-73
2023/09/11 11:04:17;;;;;;;6.85;4.88;;;;;;;30.64;28.28;100876.69;4984298;28;20074;-73
2023/09/11 11:06:46;;;;;;;6.18;4.50;;;;;;;30.67;28.79;100870.50;4987442;28;20046;-73
2023/09/11 11:09:25;;;;;;;6.30;4.90;;;;;;;30.73;28.25;100862.97;4980739;28;20061;-73
2023/09/11 11:11:57;;;;;;;7.63;4.85;;;;;;;30.73;28.83;100862.97;4981144;28;20046;-73
2023/09/11 11:14:26;;;;;;;8.00;4.75;;;;;;;30.77;28.44;100856.50;4986367;28;20446;-72
2023/09/11 11:16:57;;;;;;;6.95;4.60;;;;;;;30.84;28.83;100857.13;4985637;28;20088;-73
2023/09/11 11:19:27;;;;;;;7.40;4.53;;;;;;;30.85;28.69;100863.63;4983511;28;20386;-73
2023/09/11 11:21:55;;;;;;;6.68;4.40;;;;;;;30.89;28.69;100853.50;4983013;28;20093;-73
2023/09/11 11:24:24;;;;;;;6.63;4.82;;;;;;;30.93;28.28;100853.78;4987346;28;20046;-73
2023/09/11 11:26:56;;;;;;;7.72;4.95;;;;;;;31.00;28.25;100855.25;4988413;28;20354;-73
2023/09/11 11:29:27;;;;;;;6.75;4.78;;;;;;;31.02;28.50;100853.03;4981480;28;20061;-73
2023/09/11 11:31:59;;;;;;;8.10;5.10;;;;;;;31.07;28.87;100847.44;4976577;28;20050;-74
2023/09/11 11:34:31;;;;;;;7.30;5.03;;;;;;;31.10;28.55;100851.66;4986446;28;20059;-73